createdAt,value
2018-11-05T00:02:23.234Z,30.83
2018-11-05T00:04:52.236Z,30.23
2018-11-05T00:07:20.673Z,29.60
2018-11-05T00:09:49.160Z,30.10
2018-11-05T00:12:18.246Z,28.97
2018-11-05T00:14:46.755Z,29.70
2018-11-05T00:17:15.923Z,30.07
2018-11-05T00:19:44.845Z,29.83
2018-11-05T00:22:13.503Z,32.77
2018-11-05T00:24:42.256Z,48.10
2018-11-05T00:27:10.738Z,43.00
2018-11-05T00:29:39.174Z,43.50
2018-11-05T00:32:08.162Z,40.40
2018-11-05T00:34:36.456Z,43.10
2018-11-05T00:37:05.138Z,39.17
2018-11-05T00:39:34.247Z,39.67
2018-11-05T00:42:02.771Z,40.43
2018-11-05T00:44:31.239Z,37.97
2018-11-05T00:46:59.932Z,39.83
2018-11-05T00:49:28.379Z,41.97
2018-11-05T00:51:57.633Z,45.07
2018-11-05T00:54:26.728Z,64.20
2018-11-05T00:56:55.194Z,45.80
2018-11-05T00:59:24.319Z,32.00
2018-11-05T01:01:53.367Z,33.00
2018-11-05T01:04:22.211Z,31.90
2018-11-05T01:06:51.064Z,32.33
2018-11-05T01:09:20.194Z,31.00
2018-11-05T01:11:48.591Z,31.23
2018-11-05T01:14:17.618Z,31.13
2018-11-05T01:16:46.063Z,32.50
2018-11-05T01:19:14.678Z,33.30
2018-11-05T01:21:43.114Z,32.90
2018-11-05T01:24:11.524Z,34.40
2018-11-05T01:26:40.118Z,35.37
2018-11-05T01:29:08.558Z,34.97
2018-11-05T01:31:37.996Z,39.00
2018-11-05T01:34:06.439Z,39.63
2018-11-05T01:36:35.181Z,40.60
2018-11-05T01:39:04.848Z,40.40
2018-11-05T01:41:34.142Z,39.90
2018-11-05T01:44:02.736Z,38.30
2018-11-05T01:46:31.579Z,33.27
2018-11-05T01:49:01.274Z,33.40
2018-11-05T01:51:29.808Z,35.70
2018-11-05T01:53:58.328Z,34.67
2018-11-05T01:56:27.055Z,34.43
2018-11-05T01:58:56.179Z,36.17
2018-11-05T02:01:24.868Z,33.67
2018-11-05T02:03:54.039Z,31.80
2018-11-05T02:06:22.432Z,32.77
2018-11-05T02:08:51.704Z,31.07
2018-11-05T02:11:20.187Z,32.50
2018-11-05T02:13:48.610Z,34.07
2018-11-05T02:16:17.097Z,30.27
2018-11-05T02:18:46.098Z,32.20
2018-11-05T02:21:15.335Z,33.97
2018-11-05T02:23:44.331Z,34.43
2018-11-05T02:26:13.156Z,33.40
2018-11-05T02:28:42.140Z,34.80
2018-11-05T02:31:10.549Z,33.83
2018-11-05T02:33:39.025Z,34.17
2018-11-05T02:36:07.755Z,35.20
2018-11-05T02:38:36.909Z,37.37
2018-11-05T02:41:05.633Z,44.00
2018-11-05T02:43:34.275Z,36.73
2018-11-05T02:46:03.749Z,42.57
2018-11-05T02:48:32.428Z,42.17
2018-11-05T02:51:02.024Z,41.87
2018-11-05T02:53:30.492Z,47.70
2018-11-05T02:55:59.198Z,52.67
2018-11-05T02:58:28.352Z,34.00
2018-11-05T03:00:58.316Z,30.93
2018-11-05T03:03:26.956Z,29.40
2018-11-05T03:05:55.495Z,30.10
2018-11-05T03:08:23.984Z,29.27
2018-11-05T03:10:52.999Z,30.13
2018-11-05T03:13:22.116Z,30.57
2018-11-05T03:15:50.521Z,29.97
2018-11-05T03:18:18.935Z,31.00
2018-11-05T03:20:47.724Z,30.87
2018-11-05T03:23:16.199Z,32.00
2018-11-05T03:25:46.258Z,27.97
2018-11-05T03:28:14.634Z,29.67
2018-11-05T03:30:44.289Z,29.40
2018-11-05T03:33:13.168Z,28.67
2018-11-05T03:35:42.007Z,28.40
2018-11-05T03:38:11.877Z,29.97
2018-11-05T03:40:41.019Z,27.87
2018-11-05T03:43:09.659Z,27.23
2018-11-05T03:45:38.183Z,27.40
2018-11-05T03:48:07.202Z,28.07
2018-11-05T03:50:35.913Z,29.00
2018-11-05T03:53:05.040Z,26.93
2018-11-05T03:55:34.553Z,27.67
2018-11-05T03:58:03.874Z,29.90
2018-11-05T04:00:32.961Z,27.53
2018-11-05T04:03:02.508Z,27.50
2018-11-05T04:05:31.006Z,24.07
2018-11-05T04:07:59.697Z,26.87
2018-11-05T04:10:29.024Z,27.00
2018-11-05T04:12:59.266Z,28.57
2018-11-05T04:15:28.723Z,27.47
2018-11-05T04:17:57.198Z,28.60
2018-11-05T04:20:25.821Z,28.07
2018-11-05T04:22:54.969Z,29.87
2018-11-05T04:25:23.978Z,28.73
2018-11-05T04:27:52.748Z,29.53
2018-11-05T04:30:23.397Z,27.90
2018-11-05T04:32:52.868Z,28.77
2018-11-05T04:35:21.574Z,28.50
2018-11-05T04:37:50.696Z,30.93
2018-11-05T04:40:19.578Z,38.37
2018-11-05T04:42:49.189Z,32.43
2018-11-05T04:45:18.214Z,34.67
2018-11-05T04:47:47.512Z,31.00
2018-11-05T04:50:16.963Z,31.83
2018-11-05T04:52:46.400Z,32.30
2018-11-05T04:55:15.354Z,31.50
2018-11-05T04:57:44.167Z,31.33
2018-11-05T05:00:15.750Z,33.37
2018-11-05T05:02:44.572Z,29.33
2018-11-05T05:05:14.927Z,33.47
2018-11-05T05:07:44.389Z,31.97
2018-11-05T05:10:13.404Z,32.13
2018-11-05T05:12:44.573Z,35.60
2018-11-05T05:15:14.116Z,35.40
2018-11-05T05:17:43.169Z,35.83
2018-11-05T05:20:14.429Z,34.47
2018-11-05T05:22:44.610Z,34.03
2018-11-05T05:25:13.726Z,31.47
2018-11-05T05:27:42.866Z,30.70
2018-11-05T05:30:15.546Z,31.57
2018-11-05T05:32:45.401Z,30.20
2018-11-05T05:35:14.081Z,28.37
2018-11-05T05:37:43.132Z,30.03
2018-11-05T05:40:11.945Z,27.53
2018-11-05T05:42:41.649Z,28.70
2018-11-05T05:45:11.648Z,27.73
2018-11-05T05:47:41.629Z,29.77
2018-11-05T05:50:13.563Z,28.20
2018-11-05T05:52:43.007Z,30.27
2018-11-05T05:55:12.078Z,28.67
2018-11-05T05:57:40.906Z,29.20
2018-11-05T06:00:13.016Z,30.57
2018-11-05T06:02:41.516Z,33.50
2018-11-05T06:05:11.342Z,32.27
2018-11-05T06:07:40.620Z,34.83
2018-11-05T06:10:11.029Z,33.67
2018-11-05T06:12:40.563Z,35.40
2018-11-05T06:15:13.334Z,38.17
2018-11-05T06:17:42.779Z,37.67
2018-11-05T06:20:14.394Z,35.43
2018-11-05T06:22:43.731Z,41.80
2018-11-05T06:25:12.481Z,39.80
2018-11-05T06:27:40.942Z,32.97
2018-11-05T06:30:14.097Z,27.97
2018-11-05T06:32:43.636Z,29.50
2018-11-05T06:35:13.404Z,30.87
2018-11-05T06:37:42.334Z,32.87
2018-11-05T06:40:12.890Z,34.20
2018-11-05T06:42:43.491Z,31.07
2018-11-05T06:45:15.377Z,33.23
2018-11-05T06:47:45.358Z,34.77
2018-11-05T06:50:18.071Z,33.97
2018-11-05T06:52:47.847Z,31.27
2018-11-05T06:55:16.910Z,31.93
2018-11-05T06:57:46.781Z,31.93
2018-11-05T07:00:20.884Z,33.80
2018-11-05T07:02:50.075Z,34.73
2018-11-05T07:05:19.195Z,32.50
2018-11-05T07:07:47.926Z,36.07
2018-11-05T07:10:17.082Z,33.73
2018-11-05T07:12:46.245Z,34.80
2018-11-05T07:15:16.762Z,30.67
2018-11-05T07:17:46.895Z,33.10
2018-11-05T07:20:16.607Z,34.97
2018-11-05T07:22:46.282Z,33.67
2018-11-05T07:25:15.881Z,33.70
2018-11-05T07:27:45.930Z,36.87
2018-11-05T07:30:20.397Z,37.90
2018-11-05T07:32:49.939Z,40.90
2018-11-05T07:35:18.657Z,35.37
2018-11-05T07:37:47.104Z,32.77
2018-11-05T07:40:16.944Z,31.83
2018-11-05T07:42:46.155Z,34.10
2018-11-05T07:45:16.796Z,33.60
2018-11-05T07:47:45.877Z,34.43
2018-11-05T07:50:16.515Z,32.13
2018-11-05T07:52:44.887Z,27.17
2018-11-05T07:55:14.930Z,31.00
2018-11-05T07:57:45.538Z,27.30
2018-11-05T08:00:19.617Z,25.67
2018-11-05T08:02:49.351Z,23.33
2018-11-05T08:05:18.757Z,22.07
2018-11-05T08:07:47.540Z,23.90
2018-11-05T08:10:16.193Z,26.70
2018-11-05T08:12:45.196Z,28.37
2018-11-05T08:15:18.202Z,24.17
2018-11-05T08:17:48.198Z,27.47
2018-11-05T08:20:16.882Z,27.33
2018-11-05T08:22:45.557Z,26.60
2018-11-05T08:25:15.157Z,26.07
2018-11-05T08:27:43.846Z,28.00
2018-11-05T08:30:15.583Z,29.37
2018-11-05T08:32:44.047Z,27.17
2018-11-05T08:35:13.727Z,26.30
2018-11-05T08:37:43.075Z,27.47
2018-11-05T08:40:18.096Z,26.50
2018-11-05T08:42:48.091Z,26.83
2018-11-05T08:45:17.723Z,25.70
2018-11-05T08:47:46.290Z,26.73
2018-11-05T08:50:17.397Z,26.60
2018-11-05T08:52:46.043Z,24.30
2018-11-05T08:55:20.028Z,23.63
2018-11-05T08:57:48.554Z,20.53
2018-11-05T09:00:22.538Z,19.03
2018-11-05T09:02:52.030Z,17.70
2018-11-05T09:05:20.855Z,15.40
2018-11-05T09:07:51.410Z,16.70
2018-11-05T09:10:20.140Z,16.70
2018-11-05T09:12:48.423Z,18.23
2018-11-05T09:15:18.698Z,17.07
2018-11-05T09:17:47.590Z,15.87
2018-11-05T09:20:17.067Z,14.87
2018-11-05T09:22:46.715Z,14.20
2018-11-05T09:25:16.416Z,14.00
2018-11-05T09:27:45.439Z,13.47
2018-11-05T09:30:18.798Z,15.20
2018-11-05T09:32:47.619Z,13.43
2018-11-05T09:35:16.132Z,12.23
2018-11-05T09:37:44.624Z,11.17
2018-11-05T09:40:16.867Z,11.77
2018-11-05T09:42:46.204Z,12.37
2018-11-05T09:45:20.186Z,12.00
2018-11-05T09:47:48.931Z,13.60
2018-11-05T09:50:18.712Z,11.73
2018-11-05T09:52:48.210Z,11.57
2018-11-05T09:55:17.659Z,12.83
2018-11-05T09:57:46.330Z,10.47
2018-11-05T10:00:18.033Z,12.20
2018-11-05T10:02:50.718Z,12.17
2018-11-05T10:05:20.157Z,12.70
2018-11-05T10:07:49.013Z,15.97
2018-11-05T10:10:18.257Z,15.37
2018-11-05T10:12:46.762Z,13.00
2018-11-05T10:15:16.050Z,13.93
2018-11-05T10:17:45.027Z,13.53
2018-11-05T10:20:16.117Z,13.93
2018-11-05T10:22:45.216Z,25.93
2018-11-05T10:25:14.507Z,12.77
2018-11-05T10:27:42.790Z,12.50
2018-11-05T10:30:13.836Z,14.13
2018-11-05T10:32:42.864Z,13.37
2018-11-05T10:35:13.416Z,13.67
2018-11-05T10:37:42.024Z,13.00
2018-11-05T10:40:12.954Z,12.60
2018-11-05T10:42:42.759Z,14.63
2018-11-05T10:45:13.073Z,12.87
2018-11-05T10:47:42.395Z,12.10
2018-11-05T10:50:12.989Z,11.10
2018-11-05T10:52:43.194Z,12.70
2018-11-05T10:55:11.603Z,11.60
2018-11-05T10:57:41.012Z,13.10
2018-11-05T11:00:19.238Z,11.60
2018-11-05T11:02:51.938Z,11.80
2018-11-05T11:05:20.896Z,12.20
2018-11-05T11:07:49.579Z,11.90
2018-11-05T11:10:18.203Z,11.70
2018-11-05T11:12:46.998Z,12.40
2018-11-05T11:15:15.776Z,12.73
2018-11-05T11:17:44.491Z,12.53
2018-11-05T11:20:13.930Z,13.33
2018-11-05T11:22:42.321Z,13.90
2018-11-05T11:25:11.510Z,12.40
2018-11-05T11:27:40.418Z,13.30
2018-11-05T11:30:11.510Z,13.10
2018-11-05T11:32:40.332Z,11.80
2018-11-05T11:35:09.529Z,13.13
2018-11-05T11:37:39.481Z,13.77
2018-11-05T11:40:14.364Z,13.90
2018-11-05T11:42:44.675Z,12.97
2018-11-05T11:45:14.452Z,14.37
2018-11-05T11:47:42.957Z,12.57
2018-11-05T11:50:13.007Z,13.83
2018-11-05T11:52:41.746Z,14.03
2018-11-05T11:55:12.903Z,11.77
2018-11-05T11:57:41.686Z,13.97
2018-11-05T12:00:16.300Z,13.00
2018-11-05T12:02:45.442Z,12.63
2018-11-05T12:05:14.021Z,12.40
2018-11-05T12:07:42.661Z,12.23
2018-11-05T12:10:15.895Z,11.43
2018-11-05T12:12:44.814Z,11.53
2018-11-05T12:15:14.784Z,11.87
2018-11-05T12:17:43.978Z,12.40
2018-11-05T12:20:15.126Z,10.83
2018-11-05T12:22:44.556Z,11.20
2018-11-05T12:25:13.200Z,9.93
2018-11-05T12:27:42.372Z,9.80
2018-11-05T12:30:16.245Z,12.47
2018-11-05T12:32:46.346Z,11.00
2018-11-05T12:35:14.736Z,9.63
2018-11-05T12:37:47.518Z,10.20
2018-11-05T12:40:17.007Z,10.20
2018-11-05T12:42:46.695Z,10.40
2018-11-05T12:45:15.204Z,10.17
2018-11-05T12:47:43.668Z,10.40
2018-11-05T12:50:15.363Z,10.40
2018-11-05T12:52:46.803Z,8.63
2018-11-05T12:55:15.327Z,8.10
2018-11-05T12:57:44.096Z,8.07
2018-11-05T13:00:16.568Z,8.27
2018-11-05T13:02:49.361Z,8.40
2018-11-05T13:05:17.942Z,9.13
2018-11-05T13:07:46.416Z,9.10
2018-11-05T13:10:14.973Z,10.13
2018-11-05T13:12:43.369Z,8.83
2018-11-05T13:15:12.217Z,8.40
2018-11-05T13:17:41.616Z,8.67
2018-11-05T13:20:15.963Z,10.03
2018-11-05T13:22:44.826Z,9.87
2018-11-05T13:25:13.584Z,9.17
2018-11-05T13:27:43.865Z,10.17
2018-11-05T13:30:13.110Z,11.10
2018-11-05T13:32:42.133Z,10.90
2018-11-05T13:35:14.398Z,11.43
2018-11-05T13:37:43.360Z,11.83
2018-11-05T13:40:17.009Z,10.30
2018-11-05T13:42:47.173Z,12.77
2018-11-05T13:45:17.148Z,12.40
2018-11-05T13:47:46.523Z,13.70
2018-11-05T13:50:15.044Z,13.17
2018-11-05T13:52:43.640Z,12.60
2018-11-05T13:55:13.587Z,15.00
2018-11-05T13:57:43.783Z,13.20
2018-11-05T14:00:14.975Z,13.60
2018-11-05T14:02:43.788Z,13.73
2018-11-05T14:05:12.987Z,11.53
2018-11-05T14:07:42.087Z,14.63
2018-11-05T14:10:14.491Z,14.17
2018-11-05T14:12:44.146Z,14.07
2018-11-05T14:15:12.650Z,13.80
2018-11-05T14:17:41.878Z,13.33
2018-11-05T14:20:11.330Z,13.20
2018-11-05T14:22:40.162Z,14.17
2018-11-05T14:25:12.383Z,14.83
2018-11-05T14:27:41.809Z,14.80
2018-11-05T14:30:12.233Z,13.80
2018-11-05T14:32:41.944Z,13.57
2018-11-05T14:35:10.429Z,15.63
2018-11-05T14:37:39.164Z,16.40
2018-11-05T14:40:12.224Z,13.90
2018-11-05T14:42:40.648Z,13.97
2018-11-05T14:45:11.573Z,14.83
2018-11-05T14:47:41.130Z,15.07
2018-11-05T14:50:12.498Z,15.37
2018-11-05T14:52:41.126Z,15.37
2018-11-05T14:55:12.055Z,15.67
2018-11-05T14:57:40.693Z,16.83
2018-11-05T15:00:14.238Z,16.67
2018-11-05T15:02:43.704Z,16.33
2018-11-05T15:05:13.146Z,15.13
2018-11-05T15:07:43.442Z,15.80
2018-11-05T15:10:13.819Z,15.90
2018-11-05T15:12:42.492Z,17.03
2018-11-05T15:15:12.831Z,16.73
2018-11-05T15:17:42.705Z,20.00
2018-11-05T15:20:14.074Z,16.97
2018-11-05T15:22:43.657Z,18.53
2018-11-05T15:25:12.647Z,25.23
2018-11-05T15:27:41.325Z,26.13
2018-11-05T15:30:17.793Z,22.63
2018-11-05T15:32:46.543Z,21.63
2018-11-05T15:35:15.294Z,19.77
2018-11-05T15:37:44.414Z,20.67
2018-11-05T15:40:17.861Z,20.47
2018-11-05T15:42:46.459Z,22.70
2018-11-05T15:45:16.691Z,24.30
2018-11-05T15:47:46.010Z,27.57
2018-11-05T15:50:16.177Z,23.97
2018-11-05T15:52:45.141Z,20.90
2018-11-05T15:55:13.438Z,18.83
2018-11-05T15:57:42.552Z,20.87
2018-11-05T16:00:17.028Z,19.87
2018-11-05T16:02:49.089Z,19.63
2018-11-05T16:05:18.270Z,20.47
2018-11-05T16:07:47.398Z,19.67
2018-11-05T16:10:16.317Z,19.83
2018-11-05T16:12:44.791Z,21.70
2018-11-05T16:15:13.943Z,18.60
2018-11-05T16:17:42.475Z,22.03
2018-11-05T16:20:15.726Z,21.10
2018-11-05T16:22:44.766Z,19.93
2018-11-05T16:25:13.340Z,20.80
2018-11-05T16:27:42.143Z,20.47
2018-11-05T16:30:13.103Z,21.33
2018-11-05T16:32:42.429Z,22.10
2018-11-05T16:35:12.049Z,21.47
2018-11-05T16:37:41.987Z,21.20
2018-11-05T16:40:13.540Z,22.23
2018-11-05T16:42:42.903Z,23.80
2018-11-05T16:45:11.539Z,20.80
2018-11-05T16:47:40.792Z,25.17
2018-11-05T16:50:14.811Z,24.87
2018-11-05T16:52:43.737Z,23.90
2018-11-05T16:55:13.541Z,23.10
2018-11-05T16:57:42.706Z,23.50
2018-11-05T17:00:11.942Z,24.20
2018-11-05T17:02:41.627Z,23.30
2018-11-05T17:05:09.901Z,24.73
2018-11-05T17:07:39.224Z,23.37
2018-11-05T17:10:10.610Z,23.50
2018-11-05T17:12:39.288Z,26.13
2018-11-05T17:15:09.818Z,23.10
2018-11-05T17:17:38.775Z,24.77
2018-11-05T17:20:10.812Z,25.80
2018-11-05T17:22:40.838Z,23.30
2018-11-05T17:25:10.386Z,23.70
2018-11-05T17:27:40.067Z,23.80
2018-11-05T17:30:17.756Z,26.40
2018-11-05T17:32:54.539Z,32.20
2018-11-05T17:35:23.105Z,28.77
2018-11-05T17:37:53.796Z,27.10
2018-11-05T17:40:23.518Z,27.93
2018-11-05T17:42:52.748Z,27.17
2018-11-05T17:45:22.618Z,30.87
2018-11-05T17:47:51.138Z,27.17
2018-11-05T17:50:22.773Z,37.30
2018-11-05T17:52:52.039Z,34.97
2018-11-05T17:55:20.764Z,40.40
2018-11-05T17:57:50.510Z,46.63
2018-11-05T18:00:20.649Z,41.20
2018-11-05T18:02:49.414Z,35.70
2018-11-05T18:05:22.329Z,34.57
2018-11-05T18:07:51.114Z,42.33
2018-11-05T18:10:20.021Z,43.50
2018-11-05T18:12:48.690Z,43.33
2018-11-05T18:15:17.411Z,41.87
2018-11-05T18:17:47.166Z,41.90
2018-11-05T18:20:16.924Z,39.50
2018-11-05T18:22:45.916Z,37.73
2018-11-05T18:25:16.058Z,36.77
2018-11-05T18:27:44.783Z,37.90
2018-11-05T18:30:14.005Z,38.30
2018-11-05T18:32:42.758Z,34.80
2018-11-05T18:35:12.652Z,41.23
2018-11-05T18:37:42.389Z,42.43
2018-11-05T18:40:13.160Z,42.83
2018-11-05T18:42:42.499Z,47.90
2018-11-05T18:45:12.014Z,44.63
2018-11-05T18:47:40.556Z,43.83
2018-11-05T18:50:12.135Z,44.30
2018-11-05T18:52:40.920Z,43.53
2018-11-05T18:55:12.084Z,42.13
2018-11-05T18:57:41.416Z,41.13
2018-11-05T19:00:18.150Z,42.23
2018-11-05T19:02:47.908Z,40.70
2018-11-05T19:05:16.930Z,45.27
2018-11-05T19:07:47.184Z,47.90
2018-11-05T19:10:17.005Z,45.73
2018-11-05T19:12:47.078Z,48.13
2018-11-05T19:15:17.287Z,51.50
2018-11-05T19:17:47.686Z,59.10
2018-11-05T19:20:18.173Z,45.87
2018-11-05T19:22:47.713Z,47.10
2018-11-05T19:25:16.915Z,46.17
2018-11-05T19:27:45.727Z,42.03
2018-11-05T19:30:18.427Z,47.23
2018-11-05T19:32:49.923Z,48.37
2018-11-05T19:35:20.930Z,46.90
2018-11-05T19:37:50.233Z,46.37
2018-11-05T19:40:19.934Z,43.57
2018-11-05T19:42:50.030Z,46.40
2018-11-05T19:45:20.267Z,46.27
2018-11-05T19:47:51.519Z,45.10
2018-11-05T19:50:23.681Z,44.73
2018-11-05T19:52:54.479Z,51.50
2018-11-05T19:55:23.506Z,50.20
2018-11-05T19:57:53.249Z,49.00
2018-11-05T20:00:26.560Z,53.90
2018-11-05T20:02:57.258Z,48.07
2018-11-05T20:05:26.263Z,48.80
2018-11-05T20:07:55.909Z,53.17
2018-11-05T20:10:27.771Z,51.20
2018-11-05T20:12:56.329Z,50.80
2018-11-05T20:15:26.208Z,52.43
2018-11-05T20:18:01.569Z,48.70
2018-11-05T20:20:30.378Z,47.30
2018-11-05T20:22:59.447Z,48.67
2018-11-05T20:25:28.136Z,46.60
2018-11-05T20:27:56.524Z,45.80
2018-11-05T20:30:26.979Z,53.47
2018-11-05T20:33:00.099Z,53.00
2018-11-05T20:35:28.651Z,52.53
2018-11-05T20:37:57.570Z,54.43
2018-11-05T20:40:26.370Z,49.97
2018-11-05T20:42:54.906Z,51.90
2018-11-05T20:45:24.160Z,49.73
2018-11-05T20:47:52.703Z,47.47
2018-11-05T20:50:21.488Z,51.70
2018-11-05T20:52:50.404Z,48.37
2018-11-05T20:55:19.201Z,46.47
2018-11-05T20:57:48.140Z,50.73
2018-11-05T21:00:20.187Z,51.93
2018-11-05T21:02:49.752Z,48.63
2018-11-05T21:05:19.080Z,51.00
2018-11-05T21:07:47.965Z,48.43
2018-11-05T21:10:18.510Z,52.50
2018-11-05T21:12:47.630Z,44.90
2018-11-05T21:15:17.436Z,39.37
2018-11-05T21:17:47.041Z,39.53
2018-11-05T21:20:15.820Z,39.50
2018-11-05T21:22:45.295Z,37.60
2018-11-05T21:25:13.601Z,41.60
2018-11-05T21:27:42.994Z,41.97
2018-11-05T21:30:15.534Z,45.47
2018-11-05T21:32:44.660Z,41.30
2018-11-05T21:35:14.794Z,46.87
2018-11-05T21:37:43.747Z,38.47
2018-11-05T21:40:13.606Z,39.73
2018-11-05T21:42:42.186Z,37.57
2018-11-05T21:45:14.664Z,35.20
2018-11-05T21:47:43.884Z,37.77
2018-11-05T21:50:15.074Z,36.93
2018-11-05T21:52:44.105Z,43.10
2018-11-05T21:55:13.503Z,39.87
2018-11-05T21:57:43.414Z,40.60
2018-11-05T22:00:15.019Z,37.37
2018-11-05T22:02:47.631Z,36.37
2018-11-05T22:05:16.502Z,35.00
2018-11-05T22:07:45.699Z,38.83
2018-11-05T22:10:14.345Z,36.83
2018-11-05T22:12:43.466Z,38.60
2018-11-05T22:15:12.122Z,36.23
2018-11-05T22:17:40.798Z,32.70
2018-11-05T22:20:10.996Z,34.57
2018-11-05T22:22:39.628Z,33.57
2018-11-05T22:25:09.108Z,34.67
2018-11-05T22:27:38.650Z,33.90
2018-11-05T22:30:08.668Z,33.00
2018-11-05T22:32:38.202Z,34.50
2018-11-05T22:35:07.450Z,33.77
2018-11-05T22:37:37.434Z,35.07
2018-11-05T22:40:07.957Z,33.37
2018-11-05T22:42:36.972Z,32.30
2018-11-05T22:45:05.781Z,33.97
2018-11-05T22:47:34.362Z,31.80
2018-11-05T22:50:02.799Z,34.10
2018-11-05T22:52:31.921Z,34.73
2018-11-05T22:55:00.619Z,32.73
2018-11-05T22:57:29.069Z,32.43
2018-11-05T22:59:57.544Z,33.50
2018-11-05T23:02:25.987Z,33.03
2018-11-05T23:04:54.673Z,33.20
2018-11-05T23:07:23.058Z,33.30
2018-11-05T23:09:51.669Z,33.83
2018-11-05T23:12:20.137Z,33.23
2018-11-05T23:14:51.032Z,35.77
2018-11-05T23:17:19.805Z,37.13
2018-11-05T23:19:48.513Z,33.40
2018-11-05T23:22:17.276Z,35.00
2018-11-05T23:24:45.739Z,34.00
2018-11-05T23:27:14.113Z,36.63
2018-11-05T23:29:43.139Z,37.33
2018-11-05T23:32:11.582Z,32.40
2018-11-05T23:34:39.982Z,34.67
2018-11-05T23:37:08.721Z,34.73
2018-11-05T23:39:37.764Z,36.30
2018-11-05T23:42:06.239Z,36.00
2018-11-05T23:44:34.832Z,35.70
2018-11-05T23:47:03.268Z,35.17
2018-11-05T23:49:31.942Z,35.93
2018-11-05T23:52:00.425Z,33.60
2018-11-05T23:54:29.179Z,34.30
2018-11-05T23:56:57.880Z,35.07
2018-11-05T23:59:26.619Z,33.87
